Time;durP1;ratioP1;P1;durP2;ratioP2;P2;SDS_P1;SDS_P2;PMS_P1;PMS_P2;Temp;Humidity;BMP_temperature;BMP_pressure;BME280_temperature;BME280_humidity;BME280_pressure;Samples;Min_cycle;Max_cycle;Signal;HPM_P1;HPM_P2
2021/05/06 00:32:51;;;;;;;4.47;3.75;;;;;;;5.29;59.80;100007.72;5070370;28;20354;-66
2021/05/06 00:35:17;;;;;;;7.72;5.97;;;;;;;5.93;60.86;100006.91;5069803;28;20069;-66
2021/05/06 00:37:54;;;;;;;6.78;6.13;;;;;;;6.06;61.51;100013.88;5069534;28;20438;-65
2021/05/06 00:40:20;;;;;;;7.38;6.65;;;;;;;6.34;60.72;100005.97;5068298;28;20032;-67
2021/05/06 00:43:24;;;;;;;10.13;7.38;;;;;;;6.86;60.33;100003.16;5070708;28;20035;-66
2021/05/06 01:04:18;;;;;;;7.22;6.45;;;;;;;6.22;60.91;99996.41;5060745;28;20503;-66
2021/05/06 01:06:56;;;;;;;8.93;7.05;;;;;;;6.47;60.49;99996.31;5068222;28;20106;-66
2021/05/06 01:09:26;;;;;;;9.52;6.43;;;;;;;6.72;59.70;99991.00;5073221;28;20560;-66
2021/05/06 01:12:01;;;;;;;8.13;6.88;;;;;;;6.55;60.81;99998.94;5071319;28;20103;-66
2021/05/06 01:14:26;;;;;;;7.30;6.38;;;;;;;6.95;58.91;99987.41;5074393;28;20043;-66
2021/05/06 01:16:51;;;;;;;7.40;6.75;;;;;;;7.18;58.16;99992.50;5073359;28;20020;-66
2021/05/06 01:19:17;;;;;;;11.18;6.43;;;;;;;6.62;60.75;99994.53;5056276;28;20104;-65
2021/05/06 01:21:42;;;;;;;6.57;5.75;;;;;;;6.98;58.31;99990.03;5067759;28;20028;-66
2021/05/06 01:24:07;;;;;;;6.63;5.65;;;;;;;7.60;55.39;99993.13;5073569;28;20395;-65
2021/05/06 01:26:37;;;;;;;7.32;6.63;;;;;;;7.74;54.86;99993.00;5064677;28;20032;-66
2021/05/06 01:29:07;;;;;;;6.22;5.32;;;;;;;7.37;55.10;99983.69;5073993;28;20078;-65
2021/05/06 01:31:37;;;;;;;7.80;6.10;;;;;;;7.23;55.04;99996.88;5067534;28;20028;-66
2021/05/06 01:34:11;;;;;;;6.03;5.43;;;;;;;6.45;56.33;99987.63;5055959;28;20378;-66
2021/05/06 01:42:38;;;;;;;8.30;5.97;;;;;;;6.98;54.97;99979.53;5059727;28;20430;-66
2021/05/06 01:45:12;;;;;;;;;;;;;;;5.82;57.42;99991.19;5071413;28;20459;-65
2021/05/06 01:48:32;;;;;;;6.25;5.65;;;;;;;5.42;61.09;99989.41;5073119;28;19952;-66
2021/05/06 01:57:32;;;;;;;8.45;7.65;;;;;;;6.48;59.26;99989.34;5073431;28;20546;-66
2021/05/06 01:58:37;;;;;;;7.18;6.47;;;;;;;6.36;57.06;99987.63;5073318;28;20089;-65
2021/05/06 02:01:06;;;;;;;7.45;6.75;;;;;;;7.08;55.91;99982.09;5072938;28;20028;-66
2021/05/06 02:03:33;;;;;;;7.97;7.18;;;;;;;6.89;55.48;99974.31;5072989;28;20077;-66
2021/05/06 02:05:58;;;;;;;6.75;6.13;;;;;;;6.41;58.30;99980.66;5063088;28;20028;-66
2021/05/06 02:08:23;;;;;;;7.55;6.85;;;;;;;5.51;60.77;99986.81;5055526;28;20549;-65
2021/05/06 02:10:50;;;;;;;7.28;6.57;;;;;;;5.18;62.61;99973.72;5072898;28;20032;-66
2021/05/06 02:13:15;;;;;;;6.95;6.25;;;;;;;6.01;60.09;99990.28;5064511;28;20027;-66
2021/05/06 02:15:49;;;;;;;7.82;6.63;;;;;;;6.37;58.21;99987.63;5072429;28;20024;-66
2021/05/06 02:18:16;;;;;;;7.13;6.43;;;;;;;6.48;56.54;99982.38;5068318;28;20024;-66
2021/05/06 02:20:42;;;;;;;8.07;7.30;;;;;;;5.44;59.25;99983.31;5072675;28;20032;-65
2021/05/06 02:23:07;;;;;;;7.70;6.65;;;;;;;5.94;58.72;99985.97;5069106;28;20534;-66
2021/05/06 02:25:32;;;;;;;11.80;6.72;;;;;;;6.36;57.68;99988.50;5069057;28;20054;-65
2021/05/06 02:27:58;;;;;;;7.47;6.78;;;;;;;6.29;56.55;99981.53;5072972;28;20066;-66
2021/05/06 02:30:23;;;;;;;7.07;6.30;;;;;;;5.56;58.85;99990.31;5072198;28;20052;-65
2021/05/06 02:32:49;;;;;;;8.48;7.65;;;;;;;4.92;63.36;99987.59;5035128;28;20370;-66
2021/05/06 02:35:14;;;;;;;7.70;7.03;;;;;;;5.86;58.83;99992.91;5068294;28;20024;-65
2021/05/06 02:37:39;;;;;;;8.85;7.45;;;;;;;5.90;59.03;99987.69;5067990;28;20491;-66
2021/05/06 02:40:07;;;;;;;8.43;7.50;;;;;;;5.60;58.72;99983.34;5055680;28;20020;-65
2021/05/06 02:42:32;;;;;;;13.10;7.40;;;;;;;5.18;61.04;99989.41;5036315;28;20053;-66
2021/05/06 02:44:58;;;;;;;7.82;7.10;;;;;;;4.90;62.50;99985.84;5066065;28;20059;-65
2021/05/06 02:47:23;;;;;;;10.52;7.43;;;;;;;5.31;60.48;99985.06;5072272;28;20387;-66
2021/05/06 02:49:50;;;;;;;8.57;7.00;;;;;;;5.03;61.87;99991.97;5072234;28;20463;-66
2021/05/06 02:55:01;;;;;;;10.75;8.95;;;;;;;5.52;61.94;99979.00;5072821;28;20531;-66
2021/05/06 02:57:39;;;;;;;11.73;8.70;;;;;;;5.55;63.39;99979.84;5071892;28;20043;-66
2021/05/06 03:02:51;;;;;;;9.63;8.63;;;;;;;5.85;60.62;99978.09;5070740;28;20090;-65
2021/05/06 03:05:19;;;;;;;11.02;8.52;;;;;;;5.83;60.55;99970.25;5071653;28;20021;-66
2021/05/06 03:07:51;;;;;;;8.88;7.97;;;;;;;5.05;63.25;99971.94;5059050;28;20533;-65
2021/05/06 03:10:26;;;;;;;8.95;8.05;;;;;;;5.33;63.65;99972.00;5066062;28;20022;-66
2021/05/06 03:23:28;;;;;;;8.52;7.70;;;;;;;6.22;58.82;99978.06;5071492;28;20039;-65
2021/05/06 03:25:56;;;;;;;10.88;7.88;;;;;;;6.14;59.26;99978.06;5069484;28;20392;-66
2021/05/06 03:28:25;;;;;;;10.80;9.18;;;;;;;5.32;62.31;99967.63;5071370;28;20125;-66
2021/05/06 03:31:07;;;;;;;11.63;9.25;;;;;;;4.32;67.27;99973.41;5070110;28;20392;-65
2021/05/06 03:41:50;;;;;;;11.10;8.85;;;;;;;6.20;61.46;99961.47;5069740;28;20039;-66
2021/05/06 03:44:30;;;;;;;12.02;9.85;;;;;;;6.10;61.00;99954.53;5069343;28;20464;-66
2021/05/06 03:47:20;;;;;;;11.02;8.80;;;;;;;5.87;62.90;99955.44;5070107;28;20029;-65
2021/05/06 04:03:38;;;;;;;10.48;9.48;;;;;;;5.42;64.42;99976.34;5067036;28;20078;-65
2021/05/06 04:35:38;;;;;;;9.57;8.57;;;;;;;8.41;56.73;99966.09;5056203;28;20032;-66
2021/05/06 04:37:53;;;;;;;9.48;7.85;;;;;;;8.69;56.38;99964.03;5053741;28;20619;-66
2021/05/06 04:43:59;;;;;;;10.70;8.70;;;;;;;8.97;55.60;99981.22;5068600;28;20043;-66
2021/05/06 04:56:42;;;;;;;10.25;7.63;;;;;;;8.93;56.55;99976.88;5069940;28;20063;-66
2021/05/06 05:04:49;;;;;;;8.45;7.65;;;;;;;9.54;54.81;99987.38;5074302;28;20094;-65
2021/05/06 05:07:21;;;;;;;9.00;8.10;;;;;;;9.80;54.20;99980.81;5073186;28;20016;-66
2021/05/06 05:10:18;;;;;;;8.82;7.93;;;;;;;9.90;53.76;99980.69;5074567;28;20082;-65
2021/05/06 05:18:17;;;;;;;9.20;7.97;;;;;;;10.45;53.10;99986.72;5072887;28;20514;-66
2021/05/06 05:20:53;;;;;;;14.80;11.52;;;;;;;10.61;53.36;99989.91;5074425;28;20029;-66
2021/05/06 05:23:38;;;;;;;8.73;7.60;;;;;;;11.08;52.83;99980.16;5074208;28;20448;-65
2021/05/06 05:26:06;;;;;;;8.20;7.40;;;;;;;10.63;52.84;99977.56;5074126;28;20056;-66
2021/05/06 05:28:32;;;;;;;11.13;8.52;;;;;;;11.20;51.74;99977.22;5073534;28;20703;-66
2021/05/06 05:30:57;;;;;;;12.82;7.63;;;;;;;10.19;54.48;99989.81;5072934;28;20020;-67
2021/05/06 05:33:24;;;;;;;8.63;7.63;;;;;;;10.08;53.57;99972.44;5073844;28;20028;-66
2021/05/06 05:40:51;;;;;;;8.40;7.03;;;;;;;10.08;54.61;99988.25;5074228;28;20033;-66
2021/05/06 05:46:26;;;;;;;7.13;6.43;;;;;;;10.33;53.45;99985.16;5074283;28;20029;-66
2021/05/06 05:54:32;;;;;;;11.05;7.15;;;;;;;10.64;52.89;99994.28;5073273;28;20036;-66
2021/05/06 05:56:52;;;;;;;5.90;5.40;;;;;;;10.84;52.22;99983.28;5055954;28;20115;-66
2021/05/06 05:59:18;;;;;;;7.75;6.15;;;;;;;10.84;52.01;99980.66;5055891;28;20040;-66
2021/05/06 06:01:43;;;;;;;10.10;7.18;;;;;;;10.93;52.39;99978.75;5055701;28;20384;-66
2021/05/06 06:04:08;;;;;;;6.78;5.97;;;;;;;12.27;50.44;99970.25;5073531;28;20110;-66
2021/05/06 06:06:33;;;;;;;9.10;6.35;;;;;;;14.54;43.78;99971.91;5073292;28;20017;-66
2021/05/06 06:08:59;;;;;;;7.32;6.00;;;;;;;19.58;35.17;99964.47;5055553;28;20037;-66
2021/05/06 06:11:25;;;;;;;8.75;5.30;;;;;;;22.34;31.59;99957.81;5073530;28;20086;-67
2021/05/06 06:13:51;;;;;;;6.10;5.50;;;;;;;24.41;27.61;99960.63;5073324;28;20484;-68
2021/05/06 06:16:22;;;;;;;6.28;4.65;;;;;;;25.20;26.99;99963.41;5055165;28;20123;-67
2021/05/06 06:18:51;;;;;;;5.07;4.57;;;;;;;22.88;28.69;99963.88;5073236;28;20020;-67
2021/05/06 06:21:29;;;;;;;4.68;3.97;;;;;;;25.21;25.25;99960.56;5073281;28;20020;-68
2021/05/06 06:23:55;;;;;;;4.50;4.03;;;;;;;22.63;27.18;99973.72;5057264;28;20487;-68
2021/05/06 06:26:21;;;;;;;4.93;3.65;;;;;;;22.74;28.92;99969.44;5072900;28;20028;-67
2021/05/06 06:28:48;;;;;;;4.32;3.67;;;;;;;23.66;27.63;99955.56;5038415;28;20036;-68
2021/05/06 06:31:27;;;;;;;4.50;3.95;;;;;;;25.36;25.68;99954.88;5055444;28;20442;-67
2021/05/06 06:33:52;;;;;;;6.28;4.10;;;;;;;24.57;26.20;99956.69;5072960;28;20493;-68
2021/05/06 06:36:18;;;;;;;5.43;4.07;;;;;;;25.35;25.72;99943.22;5072692;28;20028;-67
2021/05/06 06:38:47;;;;;;;4.75;4.25;;;;;;;26.16;24.74;99950.94;5072843;28;20029;-68
2021/05/06 06:41:13;;;;;;;3.88;3.53;;;;;;;25.36;24.89;99947.66;5072685;28;20024;-67
2021/05/06 06:43:44;;;;;;;3.80;3.50;;;;;;;22.73;28.92;99946.19;5071625;28;20024;-67
2021/05/06 06:46:10;;;;;;;5.63;3.70;;;;;;;21.41;30.79;99938.97;5071161;28;20021;-67
2021/05/06 06:48:35;;;;;;;4.18;3.58;;;;;;;23.24;26.66;99938.94;5071270;28;20028;-67
2021/05/06 06:51:01;;;;;;;4.82;3.47;;;;;;;25.64;25.64;99941.78;5071329;28;20405;-67
2021/05/06 06:53:26;;;;;;;4.03;3.38;;;;;;;27.82;22.42;99940.75;5072756;28;20383;-68
2021/05/06 06:55:52;;;;;;;3.38;3.08;;;;;;;26.82;23.76;99941.59;5071173;28;20020;-68
2021/05/06 06:58:17;;;;;;;3.63;3.22;;;;;;;28.22;21.46;99938.81;5072415;28;20051;-68
2021/05/06 07:00:44;;;;;;;2.75;2.55;;;;;;;28.62;21.44;99935.94;5070593;28;20475;-68
2021/05/06 07:03:10;;;;;;;3.08;2.80;;;;;;;31.43;18.68;99939.97;5071074;28;20484;-68
2021/05/06 07:05:36;;;;;;;3.92;2.83;;;;;;;25.13;23.25;99927.97;5071119;28;20032;-68
2021/05/06 07:08:23;;;;;;;3.38;2.67;;;;;;;23.88;25.73;99934.19;5072213;28;20467;-67
2021/05/06 07:10:51;;;;;;;2.55;2.30;;;;;;;23.52;26.92;99928.81;5071146;28;20506;-68
2021/05/06 07:13:19;;;;;;;2.78;2.58;;;;;;;25.46;24.72;99928.00;5071039;28;20476;-67
2021/05/06 07:15:49;;;;;;;3.15;2.58;;;;;;;25.99;24.38;99926.25;5072043;28;20476;-67
2021/05/06 07:18:14;;;;;;;3.47;2.60;;;;;;;28.46;20.95;99923.91;5070949;28;20060;-68
2021/05/06 07:20:43;;;;;;;2.92;2.65;;;;;;;30.31;19.71;99930.94;5070930;28;20060;-68
2021/05/06 07:23:09;;;;;;;2.75;2.53;;;;;;;22.74;26.77;99921.06;5065680;28;20021;-67
2021/05/06 07:25:34;;;;;;;2.97;2.10;;;;;;;19.48;32.31;99916.84;5054146;28;20028;-67
2021/05/06 07:28:08;;;;;;;3.65;3.00;;;;;;;18.37;32.80;99931.94;5071814;28;20540;-67
2021/05/06 07:30:34;;;;;;;5.10;2.50;;;;;;;23.60;27.44;99934.47;5072120;28;20491;-67
2021/05/06 07:32:59;;;;;;;2.92;2.47;;;;;;;20.94;28.22;99924.19;5071870;28;20483;-67
2021/05/06 07:35:25;;;;;;;5.68;2.60;;;;;;;20.60;29.41;99924.47;5071873;28;20081;-67
2021/05/06 07:37:50;;;;;;;2.63;2.42;;;;;;;19.96;31.06;99923.00;5071795;28;20055;-67
2021/05/06 07:40:15;;;;;;;4.35;2.50;;;;;;;18.34;33.08;99916.94;5071903;28;20024;-67
2021/05/06 07:42:41;;;;;;;3.75;2.60;;;;;;;19.18;32.16;99911.50;5071722;28;20056;-66
2021/05/06 07:45:07;;;;;;;3.63;2.47;;;;;;;19.86;33.22;99912.88;5053965;28;20100;-66
2021/05/06 07:47:33;;;;;;;2.75;2.40;;;;;;;19.67;31.46;99912.25;5057158;28;20043;-66
2021/05/06 07:49:58;;;;;;;3.83;2.58;;;;;;;17.87;34.06;99910.50;5070876;28;20017;-66
2021/05/06 07:52:23;;;;;;;3.03;2.72;;;;;;;17.65;34.49;99903.59;5071738;28;20527;-66
2021/05/06 07:54:49;;;;;;;3.05;2.75;;;;;;;18.93;34.06;99904.84;5072119;28;20028;-66
2021/05/06 07:57:14;;;;;;;2.50;2.30;;;;;;;18.31;33.68;99917.97;5071385;28;20494;-66
2021/05/06 07:59:39;;;;;;;2.80;2.60;;;;;;;16.77;35.77;99915.75;5071823;28;20020;-66
2021/05/06 08:02:06;;;;;;;3.05;2.42;;;;;;;21.33;30.69;99916.28;5071661;28;20052;-66
2021/05/06 08:04:31;;;;;;;2.72;2.50;;;;;;;19.61;31.18;99908.97;5061779;28;20055;-66
2021/05/06 08:06:56;;;;;;;4.70;2.72;;;;;;;16.75;35.17;99904.34;5053579;28;20391;-66
2021/05/06 08:09:22;;;;;;;2.70;2.50;;;;;;;20.13;30.65;99897.91;5071579;28;20028;-66
2021/05/06 08:11:51;;;;;;;4.85;2.97;;;;;;;19.78;32.89;99898.22;5074723;28;20035;-66
2021/05/06 08:14:16;;;;;;;1.92;1.80;;;;;;;21.99;28.74;99900.25;5057957;28;20403;-66
2021/05/06 08:16:41;;;;;;;2.42;2.22;;;;;;;18.13;32.70;99898.47;5075513;28;20020;-67
2021/05/06 08:19:06;;;;;;;3.53;2.00;;;;;;;18.67;33.22;99896.50;5075576;28;20029;-66
2021/05/06 08:21:32;;;;;;;2.50;2.30;;;;;;;17.43;34.90;99894.88;5071378;28;20032;-66
2021/05/06 08:23:57;;;;;;;3.17;2.35;;;;;;;16.41;35.87;99900.59;5075463;28;20024;-66
2021/05/06 08:26:25;;;;;;;2.42;2.22;;;;;;;16.73;35.19;99895.56;5074049;28;20021;-66
2021/05/06 08:28:52;;;;;;;2.80;2.30;;;;;;;16.41;36.03;99895.28;5074229;28;20130;-66
2021/05/06 08:31:17;;;;;;;2.33;2.13;;;;;;;19.46;31.83;99904.53;5075401;28;20051;-66
2021/05/06 08:33:43;;;;;;;2.17;2.03;;;;;;;16.65;35.55;99893.28;5074191;28;20476;-66
2021/05/06 08:36:08;;;;;;;4.35;2.90;;;;;;;19.30;32.41;99899.22;5075154;28;20483;-66
2021/05/06 08:38:33;;;;;;;2.53;2.33;;;;;;;17.65;34.10;99892.91;5057834;28;20029;-66
2021/05/06 08:40:59;;;;;;;2.63;2.42;;;;;;;16.13;36.64;99901.81;5075146;28;20032;-67
2021/05/06 08:43:28;;;;;;;4.30;2.58;;;;;;;16.10;37.08;99896.63;5075638;28;20319;-66
2021/05/06 08:45:55;;;;;;;4.15;3.00;;;;;;;15.16;38.98;99900.53;5057635;28;20017;-66
2021/05/06 08:48:20;;;;;;;2.13;1.95;;;;;;;14.41;39.60;99903.41;5074915;28;20085;-66
2021/05/06 08:50:46;;;;;;;2.10;1.90;;;;;;;14.09;39.72;99901.00;5074837;28;20028;-66
2021/05/06 08:53:13;;;;;;;3.92;2.30;;;;;;;13.84;39.54;99903.69;5074837;28;20032;-66
2021/05/06 08:55:38;;;;;;;2.75;2.25;;;;;;;17.07;37.14;99893.09;5073710;28;20024;-66
2021/05/06 08:58:04;;;;;;;4.30;2.10;;;;;;;18.35;32.63;99886.63;5056885;28;20468;-66
2021/05/06 09:00:30;;;;;;;2.38;1.88;;;;;;;21.57;28.14;99894.16;5073657;28;20078;-66
2021/05/06 09:02:55;;;;;;;2.33;1.88;;;;;;;23.86;24.97;99890.38;5056917;28;20126;-67
2021/05/06 09:05:22;;;;;;;1.92;1.45;;;;;;;20.47;27.49;99884.25;5074623;28;20025;-67
2021/05/06 09:07:47;;;;;;;1.40;1.30;;;;;;;21.46;26.02;99890.38;5057100;28;20534;-67
2021/05/06 09:10:32;;;;;;;3.42;1.45;;;;;;;20.25;28.42;99890.94;5057962;28;20036;-66
2021/05/06 09:12:57;;;;;;;1.80;1.70;;;;;;;18.83;30.09;99889.34;5074671;28;20028;-66
2021/05/06 09:15:23;;;;;;;2.15;1.52;;;;;;;20.89;27.54;99882.47;5074368;28;20403;-66
2021/05/06 09:17:48;;;;;;;3.20;1.85;;;;;;;24.52;25.36;99876.25;5073176;28;20115;-67
2021/05/06 09:20:22;;;;;;;1.40;1.30;;;;;;;25.48;22.82;99880.97;5073309;28;20114;-67
2021/05/06 09:22:48;;;;;;;1.42;1.33;;;;;;;28.86;20.85;99883.84;5073631;28;20020;-67
2021/05/06 09:25:27;;;;;;;0.98;0.80;;;;;;;26.16;20.74;99875.28;5074258;28;20024;-67
2021/05/06 09:28:01;;;;;;;1.48;1.20;;;;;;;26.03;22.18;99875.50;5072928;28;20055;-67
2021/05/06 09:30:27;;;;;;;1.00;0.93;;;;;;;22.65;24.13;99871.50;5074286;28;20024;-67
2021/05/06 09:32:59;;;;;;;1.85;1.00;;;;;;;21.25;26.65;99860.50;5074288;28;20029;-67
2021/05/06 09:35:26;;;;;;;2.13;1.15;;;;;;;21.16;26.36;99867.34;5073730;28;20028;-67
2021/05/06 09:37:51;;;;;;;2.95;1.40;;;;;;;20.91;27.86;99854.72;5073940;28;20074;-67
2021/05/06 09:40:17;;;;;;;0.98;0.75;;;;;;;20.01;27.11;99862.09;5073987;28;20032;-67
2021/05/06 09:42:45;;;;;;;1.38;1.13;;;;;;;18.21;30.28;99874.88;5055870;28;20025;-66
2021/05/06 09:45:25;;;;;;;5.28;1.38;;;;;;;17.02;32.62;99874.66;5072803;28;20420;-66
2021/05/06 09:48:09;;;;;;;4.07;1.48;;;;;;;16.00;34.65;99886.41;5055952;28;20098;-66
2021/05/06 09:50:36;;;;;;;1.90;1.70;;;;;;;15.70;35.73;99894.78;5073722;28;20111;-67
2021/05/06 09:53:01;;;;;;;5.15;1.50;;;;;;;15.52;35.69;99889.34;5073869;28;20025;-66
2021/05/06 09:55:33;;;;;;;1.98;1.70;;;;;;;15.36;36.44;99885.56;5075237;28;20034;-67
2021/05/06 09:58:24;;;;;;;4.22;2.25;;;;;;;15.68;35.38;99880.69;5055802;28;20021;-67
2021/05/06 10:00:51;;;;;;;4.35;1.90;;;;;;;15.28;36.13;99896.53;5056992;28;20031;-66
2021/05/06 10:03:22;;;;;;;2.47;1.45;;;;;;;14.73;36.50;99890.69;5046987;28;20024;-66
2021/05/06 10:05:49;;;;;;;2.72;1.83;;;;;;;15.35;35.90;99894.47;5035293;28;20025;-66
2021/05/06 10:08:16;;;;;;;4.78;2.10;;;;;;;16.64;33.41;99880.03;5071488;28;20523;-66
2021/05/06 10:10:41;;;;;;;2.30;1.60;;;;;;;18.01;31.87;99878.59;5063373;28;20021;-66
2021/05/06 10:13:08;;;;;;;2.45;1.55;;;;;;;17.64;33.01;99884.03;5073087;28;20016;-66
2021/05/06 10:15:33;;;;;;;1.67;1.52;;;;;;;17.00;33.22;99883.63;5054920;28;20318;-66
2021/05/06 10:17:59;;;;;;;1.77;1.60;;;;;;;17.79;33.38;99887.75;5054915;28;20024;-67
2021/05/06 10:20:26;;;;;;;1.77;1.45;;;;;;;16.39;36.42;99882.03;5054963;28;20025;-67
2021/05/06 10:22:52;;;;;;;2.78;1.90;;;;;;;16.92;35.52;99881.34;5072473;28;20036;-66
2021/05/06 10:25:22;;;;;;;3.05;1.70;;;;;;;17.82;34.02;99884.91;5072798;28;20117;-66
2021/05/06 10:27:49;;;;;;;4.45;2.20;;;;;;;20.60;30.38;99874.47;5073064;28;20495;-66
2021/05/06 10:30:15;;;;;;;1.63;1.40;;;;;;;21.41;28.24;99876.44;5055382;28;20024;-67
2021/05/06 10:32:43;;;;;;;1.95;1.48;;;;;;;21.13;27.75;99875.59;5055123;28;20023;-66
2021/05/06 10:35:10;;;;;;;1.83;1.50;;;;;;;21.42;26.62;99875.47;5053991;28;20025;-67
2021/05/06 10:37:38;;;;;;;2.67;1.30;;;;;;;20.13;28.74;99881.84;5054732;28;20688;-67
2021/05/06 10:40:23;;;;;;;1.23;1.17;;;;;;;16.66;35.00;99888.78;5065668;28;20202;-66
2021/05/06 10:42:53;;;;;;;1.80;1.60;;;;;;;15.58;39.00;99892.66;5071656;28;20031;-66
2021/05/06 10:45:22;;;;;;;1.88;1.42;;;;;;;15.23;40.01;99896.72;5042832;28;20111;-66
2021/05/06 10:47:51;;;;;;;2.15;1.60;;;;;;;14.79;41.45;99918.81;5072347;28;20024;-66
2021/05/06 10:50:19;;;;;;;3.60;1.50;;;;;;;14.20;42.72;99921.81;5037734;28;20029;-66
2021/05/06 10:52:46;;;;;;;2.15;1.60;;;;;;;13.94;43.80;99920.13;5054763;28;20027;-65
2021/05/06 10:55:14;;;;;;;1.77;1.67;;;;;;;13.87;45.22;99914.16;5071993;28;20103;-67
2021/05/06 10:57:40;;;;;;;1.85;1.73;;;;;;;13.80;45.03;99916.16;5071334;28;20112;-66
2021/05/06 11:00:23;;;;;;;2.92;2.13;;;;;;;14.16;44.27;99912.25;5071389;28;20107;-66
2021/05/06 11:02:50;;;;;;;2.58;2.38;;;;;;;15.84;41.28;99907.47;5071195;28;20070;-66
2021/05/06 11:05:23;;;;;;;1.73;1.63;;;;;;;15.68;40.82;99903.75;5071067;28;20055;-66
2021/05/06 11:08:04;;;;;;;2.17;1.98;;;;;;;16.59;38.94;99900.66;5071091;28;20475;-66
2021/05/06 11:10:52;;;;;;;2.50;2.10;;;;;;;17.19;38.44;99894.28;5072353;28;20585;-66
2021/05/06 11:13:22;;;;;;;2.00;1.85;;;;;;;16.44;38.56;99895.09;5071728;28;20032;-66
2021/05/06 11:15:48;;;;;;;2.10;1.90;;;;;;;17.70;36.98;99901.53;5072093;28;20025;-67
2021/05/06 11:18:43;;;;;;;2.10;1.85;;;;;;;18.65;35.53;99895.72;5072053;28;20048;-67
2021/05/06 11:21:09;;;;;;;2.25;1.55;;;;;;;18.85;33.66;99890.09;5071113;28;20032;-67
2021/05/06 11:23:36;;;;;;;1.73;1.45;;;;;;;19.16;33.90;99886.66;5070702;28;20028;-66
2021/05/06 11:26:07;;;;;;;1.60;1.50;;;;;;;19.64;33.01;99886.53;5070789;28;20027;-66
2021/05/06 11:28:32;;;;;;;1.98;1.65;;;;;;;19.30;33.22;99878.72;5069300;28;20077;-67
2021/05/06 11:30:58;;;;;;;2.50;1.50;;;;;;;19.91;31.69;99877.78;5072227;28;20454;-66
2021/05/06 11:33:25;;;;;;;2.00;1.48;;;;;;;18.84;32.80;99872.34;5070809;28;20021;-66
2021/05/06 11:36:08;;;;;;;1.40;1.30;;;;;;;19.23;33.91;99874.66;5070582;28;20024;-66
2021/05/06 11:38:39;;;;;;;1.55;1.42;;;;;;;18.96;34.69;99864.59;5071866;28;20029;-67
2021/05/06 11:41:15;;;;;;;2.17;1.50;;;;;;;19.97;29.86;99855.13;5071933;28;20028;-66
2021/05/06 11:43:47;;;;;;;1.58;1.48;;;;;;;19.24;31.82;99852.31;5070705;28;20031;-66
2021/05/06 11:46:27;;;;;;;3.55;1.48;;;;;;;17.86;35.71;99864.28;5071067;28;20058;-66
2021/05/06 11:48:58;;;;;;;2.00;1.80;;;;;;;17.87;36.09;99857.97;5053872;28;20395;-66
2021/05/06 11:51:31;;;;;;;1.80;1.70;;;;;;;18.37;35.71;99844.69;5053841;28;20047;-66
2021/05/06 11:54:07;;;;;;;3.58;1.52;;;;;;;19.18;34.96;99842.84;5054021;28;20016;-66
2021/05/06 11:56:38;;;;;;;1.75;1.65;;;;;;;18.99;35.07;99845.72;5071536;28;20028;-66
2021/05/06 11:59:06;;;;;;;2.03;1.83;;;;;;;18.25;34.58;99832.91;5053969;28;20054;-66
2021/05/06 12:01:32;;;;;;;2.05;1.33;;;;;;;17.53;35.93;99841.94;5054769;28;20054;-66
2021/05/06 12:03:57;;;;;;;1.77;1.67;;;;;;;16.62;38.05;99852.59;5053788;28;20411;-66
2021/05/06 12:06:36;;;;;;;1.85;1.60;;;;;;;17.09;36.96;99853.94;5053473;28;20108;-66
2021/05/06 12:09:06;;;;;;;1.58;1.48;;;;;;;17.82;36.78;99860.03;5071677;28;20025;-67
2021/05/06 12:11:41;;;;;;;3.20;1.70;;;;;;;18.48;34.13;99841.44;5070400;28;20029;-66
2021/05/06 12:14:08;;;;;;;1.85;1.63;;;;;;;17.61;36.88;99844.22;5071691;28;20024;-66
2021/05/06 12:16:35;;;;;;;1.70;1.60;;;;;;;17.69;36.67;99850.03;5053571;28;20029;-66
2021/05/06 12:19:06;;;;;;;1.20;1.10;;;;;;;17.52;36.54;99848.22;5057199;28;20024;-65
2021/05/06 12:21:31;;;;;;;2.03;1.52;;;;;;;18.05;36.21;99848.16;5071466;28;20025;-66
2021/05/06 12:23:58;;;;;;;3.17;1.23;;;;;;;17.17;36.96;99845.53;5071206;28;20372;-66
2021/05/06 12:26:24;;;;;;;3.40;2.08;;;;;;;17.12;36.19;99842.25;5052293;28;20380;-66
2021/05/06 12:28:49;;;;;;;1.90;1.75;;;;;;;18.00;36.46;99833.34;5032180;28;20058;-66
2021/05/06 12:31:15;;;;;;;1.42;1.33;;;;;;;19.00;34.77;99833.22;5030469;28;20554;-65
2021/05/06 12:33:40;;;;;;;1.77;1.67;;;;;;;17.99;36.84;99819.13;5049986;28;20481;-66
2021/05/06 12:36:05;;;;;;;1.95;1.60;;;;;;;18.14;34.47;99816.63;5067903;28;20038;-65
2021/05/06 12:38:31;;;;;;;1.80;1.70;;;;;;;18.48;35.75;99828.09;5054994;28;20036;-66
2021/05/06 12:40:57;;;;;;;3.10;1.77;;;;;;;19.39;33.74;99820.28;5068340;28;20043;-66
2021/05/06 12:43:28;;;;;;;1.80;1.70;;;;;;;19.18;33.36;99821.47;5033864;28;20099;-66
2021/05/06 12:46:09;;;;;;;3.33;1.92;;;;;;;18.31;35.27;99821.88;5030447;28;20102;-66
2021/05/06 12:49:02;;;;;;;2.25;2.05;;;;;;;18.42;34.32;99817.75;5030613;28;20036;-65
2021/05/06 12:51:27;;;;;;;2.42;2.00;;;;;;;17.92;35.00;99809.75;5044711;28;20046;-66
2021/05/06 12:54:16;;;;;;;2.80;2.50;;;;;;;17.97;35.45;99813.00;5029879;28;20476;-66
2021/05/06 12:56:43;;;;;;;2.38;2.20;;;;;;;17.70;36.27;99808.22;5029715;28;20258;-66
2021/05/06 12:59:25;;;;;;;2.78;2.50;;;;;;;18.37;35.17;99798.47;5033530;28;20412;-66
2021/05/06 13:01:51;;;;;;;9.23;2.30;;;;;;;18.69;33.89;99796.66;5033775;28;20032;-66
2021/05/06 13:04:16;;;;;;;4.10;2.47;;;;;;;19.44;31.37;99784.31;5050716;28;20025;-66
2021/05/06 13:06:42;;;;;;;2.00;1.85;;;;;;;18.99;31.74;99800.28;5054371;28;20036;-66
2021/05/06 13:09:17;;;;;;;2.78;2.15;;;;;;;18.79;33.10;99794.31;5053746;28;20709;-66
2021/05/06 13:11:45;;;;;;;3.20;2.03;;;;;;;18.81;30.87;99791.56;5053763;28;20047;-66
2021/05/06 13:14:11;;;;;;;1.80;1.70;;;;;;;18.53;29.58;99787.78;5055193;28;20040;-66
2021/05/06 13:16:38;;;;;;;1.98;1.80;;;;;;;18.88;29.71;99787.56;5066957;28;20094;-66
2021/05/06 13:19:11;;;;;;;3.10;1.60;;;;;;;19.55;29.57;99781.00;5073278;28;20020;-66
2021/05/06 13:21:37;;;;;;;2.13;1.60;;;;;;;18.42;31.91;99777.72;5056447;28;20020;-66
2021/05/06 13:24:07;;;;;;;1.67;1.58;;;;;;;18.51;31.25;99773.66;5037253;28;20083;-66
2021/05/06 13:26:35;;;;;;;1.98;1.73;;;;;;;18.40;32.47;99763.56;5052364;28;20040;-66
2021/05/06 13:29:14;;;;;;;2.85;1.98;;;;;;;17.69;31.78;99762.03;5073087;28;20020;-66
2021/05/06 13:31:41;;;;;;;3.00;2.00;;;;;;;18.55;31.11;99752.06;5073185;28;20391;-66
2021/05/06 13:34:16;;;;;;;1.92;1.83;;;;;;;17.89;32.43;99756.56;5074327;28;20013;-65
2021/05/06 13:37:06;;;;;;;2.25;1.60;;;;;;;17.23;33.07;99759.97;5070862;28;20554;-66
2021/05/06 13:39:33;;;;;;;2.47;1.95;;;;;;;17.24;34.89;99760.84;5073131;28;20455;-66
2021/05/06 13:41:58;;;;;;;1.90;1.80;;;;;;;17.10;33.46;99764.22;5071235;28;20400;-65
2021/05/06 13:44:25;;;;;;;2.95;1.90;;;;;;;17.97;33.03;99753.47;5073525;28;20029;-66
2021/05/06 13:46:55;;;;;;;2.88;1.60;;;;;;;17.28;34.47;99765.91;5072471;28;20099;-66
2021/05/06 13:49:21;;;;;;;1.95;1.77;;;;;;;17.65;33.96;99764.94;5058279;28;20560;-66
2021/05/06 13:51:47;;;;;;;2.00;1.77;;;;;;;18.67;33.09;99757.63;5063889;28;20518;-66
2021/05/06 13:54:13;;;;;;;2.10;1.90;;;;;;;18.99;30.79;99757.53;5072622;28;20032;-66
2021/05/06 13:56:38;;;;;;;3.00;2.25;;;;;;;18.26;33.10;99764.34;5070575;28;20040;-66
2021/05/06 13:59:03;;;;;;;1.75;1.65;;;;;;;18.01;32.50;99771.88;5072578;28;20032;-66
2021/05/06 14:01:29;;;;;;;2.38;2.10;;;;;;;17.86;33.61;99767.38;5072562;28;20024;-66
2021/05/06 14:03:54;;;;;;;2.20;1.92;;;;;;;17.95;33.62;99770.41;5073507;28;20028;-66
2021/05/06 14:06:20;;;;;;;2.30;2.13;;;;;;;17.65;31.12;99770.28;5055658;28;20560;-66
2021/05/06 14:08:45;;;;;;;2.08;1.90;;;;;;;17.21;31.99;99777.84;5072073;28;20020;-66
2021/05/06 14:11:10;;;;;;;2.75;2.00;;;;;;;16.46;34.39;99776.16;5076178;28;20036;-65
2021/05/06 14:13:36;;;;;;;2.40;1.95;;;;;;;16.46;34.51;99762.84;5071950;28;20388;-65
2021/05/06 14:16:02;;;;;;;2.90;1.92;;;;;;;16.48;35.67;99765.44;5055387;28;20047;-65
2021/05/06 14:18:28;;;;;;;2.75;1.85;;;;;;;16.60;34.72;99778.13;5072061;28;20024;-65
2021/05/06 14:20:59;;;;;;;2.30;2.10;;;;;;;16.39;35.77;99761.41;5073282;28;20076;-65
2021/05/06 14:23:25;;;;;;;1.90;1.80;;;;;;;15.92;36.10;99747.59;5072132;28;20395;-65
2021/05/06 14:25:50;;;;;;;2.63;1.73;;;;;;;15.90;34.37;99763.63;5072995;28;20028;-65
2021/05/06 14:28:15;;;;;;;4.07;3.22;;;;;;;15.77;37.72;99758.00;5072826;28;20047;-65
2021/05/06 14:30:40;;;;;;;3.70;3.40;;;;;;;16.86;36.95;99759.16;5072815;28;20032;-65